Time;durP1;ratioP1;P1;durP2;ratioP2;P2;SDS_P1;SDS_P2;PMS_P1;PMS_P2;Temp;Humidity;BMP_temperature;BMP_pressure;BME280_temperature;BME280_humidity;BME280_pressure;Samples;Min_cycle;Max_cycle;Signal;HPM_P1;HPM_P2
2022/06/10 00:01:01;;;;;;;2.83;2.57;;;19.10;64.10;;;;;;5130862;27;20531;-47
2022/06/10 00:03:51;;;;;;;1.90;1.70;;;19.10;64.20;;;;;;5030605;27;20551;-46
2022/06/10 00:06:44;;;;;;;1.90;1.80;;;19.10;64.10;;;;;;5108616;27;20933;-47
2022/06/10 00:09:27;;;;;;;2.20;2.00;;;19.10;64.20;;;;;;5055687;27;20917;-48
2022/06/10 00:12:10;;;;;;;2.00;1.90;;;19.10;64.20;;;;;;5124141;27;21055;-48
2022/06/10 00:14:54;;;;;;;1.60;1.50;;;19.10;64.20;;;;;;5146388;27;20655;-47
2022/06/10 00:17:36;;;;;;;2.03;1.80;;;19.10;64.20;;;;;;5080089;28;20554;-47
2022/06/10 00:23:22;;;;;;;2.37;2.17;;;19.10;64.20;;;;;;5106189;27;20589;-47
2022/06/10 00:26:15;;;;;;;2.40;2.20;;;19.10;64.30;;;;;;5087563;28;20536;-47
2022/06/10 00:29:26;;;;;;;2.30;1.70;;;19.10;64.20;;;;;;5033784;27;20538;-46
2022/06/10 00:32:22;;;;;;;3.27;2.20;;;19.10;64.20;;;;;;5083942;27;20527;-47
2022/06/10 00:35:09;;;;;;;1.70;1.60;;;19.00;64.20;;;;;;5139874;27;20464;-47
2022/06/10 00:38:03;;;;;;;2.80;2.00;;;19.00;64.20;;;;;;5078878;27;20542;-67
2022/06/10 00:40:49;;;;;;;3.00;1.93;;;19.10;64.20;;;;;;5126028;27;1331253;-50
2022/06/10 00:43:34;;;;;;;4.53;2.00;;;19.10;64.20;;;;;;5065504;27;21156;-47
2022/06/10 00:46:30;;;;;;;1.87;1.73;;;19.10;64.40;;;;;;5085056;28;20578;-47
2022/06/10 00:49:18;;;;;;;1.80;1.70;;;19.10;64.20;;;;;;5054042;27;20551;-44
2022/06/10 00:52:04;;;;;;;1.57;1.47;;;19.00;64.20;;;;;;5087767;28;20758;-46
2022/06/10 00:54:49;;;;;;;2.27;2.07;;;19.00;64.20;;;;;;5104930;27;2091414;-48
2022/06/10 00:57:40;;;;;;;2.07;1.97;;;19.00;64.30;;;;;;5132306;27;20527;-47
2022/06/10 01:00:36;;;;;;;2.20;1.50;;;19.00;64.20;;;;;;5133243;27;20558;-46
2022/06/10 01:03:34;;;;;;;1.77;1.67;;;19.00;64.20;;;;;;5056506;27;20959;-46
2022/06/10 01:06:15;;;;;;;2.50;2.30;;;19.00;64.20;;;;;;5087744;27;20526;-46
2022/06/10 01:09:02;;;;;;;2.37;2.17;;;19.00;64.20;;;;;;5082578;27;20617;-47
2022/06/10 01:12:29;;;;;;;1.90;1.80;;;19.00;64.10;;;;;;5107334;27;20535;-47
2022/06/10 01:15:25;;;;;;;3.20;1.65;;;19.00;64.20;;;;;;5140943;27;1243591;-45
2022/06/10 01:18:24;;;;;;;1.70;1.60;;;19.00;64.20;;;;;;5077015;28;20957;-46
2022/06/10 01:21:37;;;;;;;2.50;2.00;;;19.00;64.20;;;;;;5090573;27;20577;-46
2022/06/10 01:24:51;;;;;;;1.80;1.70;;;19.00;64.20;;;;;;5062839;27;20543;-47
2022/06/10 01:28:06;;;;;;;1.77;1.67;;;19.00;64.20;;;;;;5101615;27;20538;-47
2022/06/10 01:31:05;;;;;;;1.80;1.70;;;19.00;64.20;;;;;;5125227;27;20598;-49
2022/06/10 01:34:19;;;;;;;2.23;1.50;;;19.00;64.20;;;;;;5063391;27;20617;-48
2022/06/10 01:37:15;;;;;;;4.93;2.30;;;19.00;64.20;;;;;;5126629;27;20540;-47
2022/06/10 01:40:04;;;;;;;2.20;2.10;;;19.00;64.10;;;;;;5082671;27;21131;-47
2022/06/10 01:42:50;;;;;;;2.30;1.83;;;19.00;65.40;;;;;;5109966;27;21059;-46
2022/06/10 01:45:36;;;;;;;4.53;2.07;;;19.00;64.20;;;;;;5105055;27;20580;-47
2022/06/10 01:48:23;;;;;;;2.10;1.77;;;18.90;64.20;;;;;;5120221;27;21053;-48
2022/06/10 01:51:10;;;;;;;2.57;1.60;;;19.00;64.20;;;;;;5087633;27;21114;-48
2022/06/10 01:53:58;;;;;;;1.63;1.53;;;18.90;64.00;;;;;;5069714;27;20609;-48
2022/06/10 01:56:44;;;;;;;3.03;2.13;;;18.90;64.20;;;;;;5128975;27;20582;-46
2022/06/10 01:59:29;;;;;;;1.50;1.40;;;19.00;64.20;;;;;;5049530;27;20554;-48
2022/06/10 02:02:15;;;;;;;3.20;2.20;;;19.00;64.10;;;;;;5085525;28;21119;-45
2022/06/10 02:05:01;;;;;;;1.60;1.50;;;18.90;64.00;;;;;;5107951;27;20937;-47
2022/06/10 02:07:48;;;;;;;1.80;1.70;;;18.90;64.10;;;;;;5065125;27;20593;-46
2022/06/10 02:10:32;;;;;;;1.97;1.37;;;18.90;64.00;;;;;;5126778;27;20594;-48
2022/06/10 02:13:20;;;;;;;1.57;1.43;;;18.90;64.00;;;;;;5064542;27;20542;-47
2022/06/10 02:16:05;;;;;;;1.57;1.40;;;18.90;64.00;;;;;;5084647;28;20941;-47
2022/06/10 02:18:49;;;;;;;1.50;1.40;;;18.90;64.10;;;;;;5087090;27;21080;-48
2022/06/10 02:21:33;;;;;;;1.90;1.70;;;18.90;64.10;;;;;;5133548;27;1228298;-46
2022/06/10 02:24:18;;;;;;;2.47;2.20;;;18.90;64.10;;;;;;5064958;27;20611;-45
2022/06/10 02:27:02;;;;;;;2.13;1.93;;;18.90;64.10;;;;;;5124920;27;20938;-68
2022/06/10 02:29:51;;;;;;;1.60;1.40;;;18.90;64.20;;;;;;5084411;27;21133;-48
2022/06/10 02:32:35;;;;;;;2.50;2.30;;;18.90;64.10;;;;;;5130332;27;1234956;-46
2022/06/10 02:35:18;;;;;;;2.17;1.67;;;18.90;64.20;;;;;;5087719;28;20589;-46
2022/06/10 02:38:15;;;;;;;1.30;1.20;;;18.90;64.20;;;;;;5081517;27;20555;-45
2022/06/10 02:41:04;;;;;;;1.87;1.67;;;18.90;64.10;;;;;;5128281;27;21043;-46
2022/06/10 02:43:52;;;;;;;2.10;1.90;;;18.90;64.00;;;;;;5061498;27;20545;-46
2022/06/10 02:46:41;;;;;;;1.67;1.57;;;18.90;64.10;;;;;;5104666;27;20584;-48
2022/06/10 02:49:22;;;;;;;2.40;1.33;;;18.90;64.10;;;;;;5086779;27;20543;-46
2022/06/10 02:52:04;;;;;;;1.93;1.80;;;18.90;64.10;;;;;;5087440;28;20524;-46
2022/06/10 02:54:45;;;;;;;1.70;1.50;;;18.90;64.10;;;;;;5133449;27;20533;-47
2022/06/10 03:03:51;;;;;;;1.60;1.50;;;18.90;64.10;;;;;;5073360;27;20532;-47
2022/06/10 03:06:47;;;;;;;2.67;1.50;;;18.90;64.10;;;;;;5115140;27;21127;-47
2022/06/10 03:15:17;;;;;;;1.90;1.67;;;18.90;64.10;;;;;;5134460;27;20745;-51
2022/06/10 03:24:34;;;;;;;2.80;1.90;;;18.80;63.80;;;;;;4277249;27;25214618;-48
2022/06/10 03:36:50;;;;;;;2.50;2.00;;;18.80;63.70;;;;;;5129145;27;20961;-67
2022/06/10 03:40:32;;;;;;;2.00;1.50;;;18.80;63.90;;;;;;4250776;27;24768411;-46
2022/06/10 03:47:32;;;;;;;2.30;1.60;;;18.80;63.80;;;;;;4289159;27;24901513;-48
2022/06/10 03:50:20;;;;;;;1.57;1.47;;;18.80;63.60;;;;;;5136209;27;20558;-47
2022/06/10 04:01:51;;;;;;;1.93;1.30;;;18.80;63.70;;;;;;4647956;27;11997424;-48
2022/06/10 04:04:42;;;;;;;1.60;1.40;;;18.70;63.60;;;;;;5107621;27;20927;-48
2022/06/10 04:07:25;;;;;;;2.43;1.70;;;18.70;65.00;;;;;;5082611;28;21055;-49
2022/06/10 04:10:16;;;;;;;2.60;2.20;;;18.70;63.60;;;;;;5080038;28;20537;-46
2022/06/10 04:13:17;;;;;;;3.07;1.63;;;18.70;63.60;;;;;;5099257;27;20604;-48
2022/06/10 04:15:58;;;;;;;3.43;1.67;;;18.70;63.50;;;;;;5075844;28;20561;-46
2022/06/10 04:18:40;;;;;;;1.70;1.60;;;18.70;63.60;;;;;;5085202;27;20983;-48
2022/06/10 04:22:00;;;;;;;1.90;1.60;;;18.70;63.60;;;;;;5091178;27;20882;-48
2022/06/10 04:24:56;;;;;;;2.03;1.57;;;18.70;63.70;;;;;;5126821;27;20561;-49
2022/06/10 04:27:44;;;;;;;1.70;1.20;;;18.70;63.60;;;;;;5098753;27;20574;-50
2022/06/10 04:30:35;;;;;;;2.90;1.60;;;18.70;63.70;;;;;;5137631;27;20276;-46
2022/06/10 04:33:21;;;;;;;1.77;1.20;;;18.70;63.80;;;;;;5072608;27;20489;-47
2022/06/10 04:36:08;;;;;;;4.23;1.83;;;18.70;63.60;;;;;;5087436;27;20530;-45
2022/06/10 04:38:55;;;;;;;1.73;1.63;;;18.70;63.50;;;;;;5109409;27;20541;-48
2022/06/10 04:41:37;;;;;;;3.30;1.70;;;18.70;63.60;;;;;;5116945;27;20555;-47
2022/06/10 04:44:23;;;;;;;1.50;1.40;;;18.70;63.60;;;;;;5086905;27;20539;-46
2022/06/10 04:47:07;;;;;;;1.70;1.13;;;18.70;63.60;;;;;;5087958;27;20948;-47
2022/06/10 04:49:48;;;;;;;2.43;1.53;;;18.70;63.60;;;;;;4993979;27;20571;-46
2022/06/10 04:52:31;;;;;;;1.63;1.30;;;18.70;63.70;;;;;;5117937;27;20301;-48
2022/06/10 04:55:28;;;;;;;1.50;1.40;;;18.70;63.70;;;;;;5128610;27;20274;-47
2022/06/10 04:58:11;;;;;;;2.70;1.87;;;18.70;63.60;;;;;;5091043;27;20619;-46
2022/06/10 05:01:42;;;;;;;1.90;1.50;;;18.70;63.60;;;;;;5084717;27;20564;-47
2022/06/10 05:04:24;;;;;;;1.83;1.50;;;18.60;63.60;;;;;;5066986;28;21110;-47
2022/06/10 05:07:06;;;;;;;2.20;1.90;;;18.70;63.60;;;;;;5092019;27;20654;-47
2022/06/10 05:09:49;;;;;;;1.63;1.53;;;18.70;65.10;;;;;;5107126;27;20559;-48
2022/06/10 05:12:38;;;;;;;1.20;1.10;;;18.60;63.70;;;;;;5100306;27;20603;-47
2022/06/10 05:15:21;;;;;;;1.87;1.73;;;18.70;63.80;;;;;;5136593;27;1332083;-48
2022/06/10 05:18:04;;;;;;;4.83;1.57;;;18.70;65.10;;;;;;5043927;28;20970;-69
2022/06/10 05:20:52;;;;;;;1.70;1.60;;;18.60;63.70;;;;;;5064484;28;20322;-46
2022/06/10 05:23:34;;;;;;;4.63;1.40;;;18.60;63.70;;;;;;5060359;28;21143;-47
2022/06/10 05:26:16;;;;;;;1.40;1.30;;;18.60;63.80;;;;;;5128672;27;20592;-47
2022/06/10 05:28:58;;;;;;;2.70;1.33;;;18.60;63.80;;;;;;5100358;27;20602;-47
2022/06/10 05:31:40;;;;;;;2.30;1.90;;;18.60;63.90;;;;;;5137002;27;20563;-48
2022/06/10 05:37:29;;;;;;;1.73;1.60;;;18.60;63.90;;;;;;5084027;28;20538;-46
2022/06/10 05:40:17;;;;;;;2.50;1.97;;;18.60;63.90;;;;;;5126143;27;20558;-47
2022/06/10 05:43:06;;;;;;;3.20;1.50;;;18.60;64.00;;;;;;5065067;28;21205;-47
2022/06/10 05:45:59;;;;;;;1.53;1.43;;;18.60;64.10;;;;;;5105550;27;20592;-45
2022/06/10 05:48:44;;;;;;;2.10;1.73;;;18.60;64.00;;;;;;5093274;27;20562;-47
2022/06/10 05:51:26;;;;;;;2.30;2.10;;;18.60;64.00;;;;;;5107797;27;20549;-47
2022/06/10 05:54:10;;;;;;;4.83;1.67;;;18.60;64.10;;;;;;5052418;27;20583;-47
2022/06/10 05:56:51;;;;;;;2.37;1.83;;;18.60;64.20;;;;;;5087533;27;20960;-48
2022/06/10 05:59:49;;;;;;;5.70;2.07;;;18.50;64.10;;;;;;5041622;28;20546;-47
2022/06/10 06:02:32;;;;;;;2.50;2.30;;;18.60;65.50;;;;;;5115919;27;20612;-48
2022/06/10 06:05:16;;;;;;;4.20;2.37;;;18.50;64.10;;;;;;5140619;27;20392;-47
2022/06/10 06:08:51;;;;;;;3.77;2.70;;;18.60;64.20;;;;;;5090271;27;20901;-44
2022/06/10 06:11:40;;;;;;;1.73;1.63;;;18.50;64.20;;;;;;5129995;27;20850;-48
2022/06/10 06:14:22;;;;;;;1.73;1.40;;;18.60;64.20;;;;;;5086750;27;20886;-47
2022/06/10 06:17:07;;;;;;;2.23;1.97;;;18.50;64.20;;;;;;5127628;27;20526;-46
2022/06/10 06:19:48;;;;;;;3.13;2.70;;;18.60;64.30;;;;;;5107174;27;20575;-46
2022/06/10 06:22:50;;;;;;;5.20;2.57;;;18.50;64.80;;;;;;5133014;27;20543;-48
2022/06/10 06:25:36;;;;;;;2.37;2.17;;;18.50;64.70;;;;;;5078759;27;21068;-47
2022/06/10 06:37:51;;;;;;;4.73;2.43;;;18.50;64.60;;;;;;4883718;29;20573;-48
2022/06/10 07:18:17;;;;;;;1.60;1.50;;;18.50;64.60;;;;;;5110948;27;20549;-66
2022/06/10 07:31:21;;;;;;;4.83;2.13;;;18.50;64.70;;;;;;5123495;27;20527;-48
2022/06/10 07:34:12;;;;;;;3.00;2.37;;;18.50;65.10;;;;;;5125269;22;20572;-47
2022/06/10 07:36:54;;;;;;;1.80;1.60;;;18.50;64.40;;;;;;5113972;27;20594;-47
2022/06/10 07:39:35;;;;;;;2.20;2.00;;;18.50;64.30;;;;;;5084034;28;20524;-46
2022/06/10 07:42:17;;;;;;;3.63;1.83;;;18.50;64.40;;;;;;5099827;27;20585;-47
2022/06/10 07:44:58;;;;;;;6.17;1.70;;;18.50;64.30;;;;;;5086823;27;20598;-48
2022/06/10 07:47:38;;;;;;;2.50;1.80;;;18.50;64.30;;;;;;5096229;22;20539;-47
2022/06/10 07:50:21;;;;;;;3.63;2.07;;;18.50;64.30;;;;;;5086954;28;20524;-47
2022/06/10 07:53:02;;;;;;;5.17;1.80;;;18.50;64.40;;;;;;5061349;27;20838;-48
2022/06/10 07:56:15;;;;;;;2.40;1.20;;;18.50;64.40;;;;;;5067502;28;20561;-48
2022/06/10 07:59:51;;;;;;;4.03;1.57;;;18.50;64.50;;;;;;5065649;28;20944;-48
2022/06/10 08:02:33;;;;;;;2.93;1.70;;;18.50;64.60;;;;;;5114764;27;20543;-49
2022/06/10 08:05:17;;;;;;;2.23;1.60;;;18.50;64.60;;;;;;5067721;27;20662;-47
2022/06/10 08:08:02;;;;;;;2.10;1.80;;;18.50;64.30;;;;;;5068262;27;20545;-47
2022/06/10 08:10:45;;;;;;;3.00;1.80;;;18.50;64.20;;;;;;5081481;27;20672;-48
2022/06/10 08:13:28;;;;;;;2.60;2.27;;;18.50;64.20;;;;;;5068389;27;20533;-46
2022/06/10 08:16:10;;;;;;;3.80;2.10;;;18.50;64.40;;;;;;5083944;27;20552;-53
2022/06/10 08:18:52;;;;;;;3.23;1.40;;;18.50;64.50;;;;;;5042877;27;20591;-49
2022/06/10 08:24:33;;;;;;;2.60;1.50;;;18.50;64.50;;;;;;5072740;27;21104;-50
2022/06/10 08:27:17;;;;;;;3.40;1.70;;;18.50;64.50;;;;;;5125287;27;20875;-51
2022/06/10 08:29:58;;;;;;;4.97;1.60;;;18.50;64.60;;;;;;5071541;28;20526;-52
2022/06/10 08:32:39;;;;;;;1.67;1.57;;;18.40;64.40;;;;;;5096511;27;20743;-47
2022/06/10 08:35:28;;;;;;;2.90;1.90;;;18.40;64.50;;;;;;5118769;27;20526;-47
2022/06/10 08:38:13;;;;;;;1.73;1.63;;;18.40;64.40;;;;;;5063211;28;20605;-50
2022/06/10 08:41:00;;;;;;;1.90;1.67;;;18.40;64.50;;;;;;5124997;27;20521;-52
2022/06/10 08:44:01;;;;;;;3.43;1.97;;;18.40;64.40;;;;;;5063648;27;20649;-49
2022/06/10 08:47:19;;;;;;;1.87;1.67;;;18.40;64.60;;;;;;5062733;27;20605;-47
2022/06/10 08:50:21;;;;;;;1.63;1.40;;;18.40;64.50;;;;;;5082728;28;20590;-48
2022/06/10 08:53:34;;;;;;;1.67;1.57;;;18.40;64.60;;;;;;5070385;28;20649;-48
2022/06/10 08:56:24;;;;;;;4.60;1.60;;;18.40;64.70;;;;;;5122564;27;20610;-53
2022/06/10 08:59:16;;;;;;;2.57;1.70;;;18.40;64.70;;;;;;5059132;27;20540;-47
2022/06/10 09:02:05;;;;;;;2.37;2.10;;;18.40;64.70;;;;;;5084635;27;20663;-50
2022/06/10 09:04:55;;;;;;;1.70;1.60;;;18.40;64.70;;;;;;5069821;28;20543;-48
2022/06/10 09:07:41;;;;;;;2.10;1.57;;;18.40;64.70;;;;;;5100559;27;20571;-50
2022/06/10 09:10:26;;;;;;;4.07;1.53;;;18.40;64.70;;;;;;5095647;27;20532;-51
2022/06/10 09:13:23;;;;;;;2.70;1.30;;;18.40;64.70;;;;;;5102464;27;21102;-48
2022/06/10 09:16:15;;;;;;;2.33;1.80;;;18.40;66.00;;;;;;5104287;27;20539;-52
2022/06/10 09:19:07;;;;;;;3.20;1.70;;;18.40;64.70;;;;;;5060733;27;20534;-49
2022/06/10 09:21:52;;;;;;;1.23;1.13;;;18.40;64.90;;;;;;5082220;27;20587;-50
2022/06/10 09:24:38;;;;;;;2.73;1.57;;;18.40;64.90;;;;;;5049606;27;20592;-49
2022/06/10 09:27:24;;;;;;;1.70;1.60;;;18.40;65.10;;;;;;5078092;28;20535;-49
2022/06/10 09:30:09;;;;;;;3.13;1.53;;;18.40;65.10;;;;;;5084768;28;20536;-47
2022/06/10 09:32:58;;;;;;;1.87;1.70;;;18.40;65.10;;;;;;5070205;28;20590;-48
2022/06/10 09:35:49;;;;;;;1.70;1.60;;;18.40;65.20;;;;;;5085951;28;20859;-50
2022/06/10 09:38:36;;;;;;;2.60;1.60;;;18.40;65.10;;;;;;5063850;28;20550;-46
2022/06/10 09:41:29;;;;;;;2.50;1.77;;;18.40;65.20;;;;;;5087190;28;20561;-47
2022/06/10 09:44:21;;;;;;;2.60;1.37;;;18.40;65.10;;;;;;5048295;27;20621;-47
2022/06/10 09:47:14;;;;;;;1.40;1.30;;;18.40;65.30;;;;;;5086746;28;20527;-48
2022/06/10 09:50:06;;;;;;;3.40;1.63;;;18.40;65.20;;;;;;5076958;28;20584;-47
2022/06/10 09:53:00;;;;;;;2.60;1.80;;;18.40;65.80;;;;;;5064885;28;20547;-48
2022/06/10 09:56:20;;;;;;;2.50;1.50;;;18.40;65.50;;;;;;5122523;27;21065;-47
2022/06/10 09:59:18;;;;;;;1.53;1.43;;;18.40;65.30;;;;;;5069018;27;20549;-48
2022/06/10 10:02:19;;;;;;;1.60;1.50;;;18.40;65.30;;;;;;5130106;27;20910;-47
2022/06/10 10:05:24;;;;;;;1.53;1.40;;;18.40;65.20;;;;;;5079729;28;20597;-46
2022/06/10 10:08:13;;;;;;;2.40;1.63;;;18.40;65.20;;;;;;5074915;27;20589;-52
2022/06/10 10:10:57;;;;;;;1.83;1.30;;;18.40;65.30;;;;;;5124564;27;20557;-51
2022/06/10 10:14:01;;;;;;;2.07;1.80;;;18.40;65.30;;;;;;5083494;27;20548;-47
2022/06/10 10:16:56;;;;;;;1.97;1.77;;;18.40;65.40;;;;;;5126479;27;20521;-48
2022/06/10 10:19:49;;;;;;;1.93;1.43;;;18.40;65.40;;;;;;5071874;27;20958;-47
2022/06/10 10:22:46;;;;;;;1.60;1.50;;;18.30;65.20;;;;;;5082959;27;20453;-48
2022/06/10 10:25:29;;;;;;;4.57;2.53;;;18.40;65.80;;;;;;5126352;27;20571;-49
2022/06/10 10:28:18;;;;;;;3.60;1.90;;;18.40;67.10;;;;;;5057444;27;20538;-48
2022/06/10 10:31:08;;;;;;;5.03;1.87;;;18.50;66.00;;;;;;5102826;27;20538;-47
2022/06/10 10:33:49;;;;;;;3.57;2.07;;;18.50;66.30;;;;;;5053710;27;20535;-52
2022/06/10 10:36:45;;;;;;;7.30;2.60;;;18.60;65.40;;;;;;5128907;27;20518;-50
2022/06/10 10:39:31;;;;;;;1.70;1.60;;;18.50;65.10;;;;;;5067296;27;20529;-47
2022/06/10 10:42:18;;;;;;;1.60;1.47;;;18.50;65.20;;;;;;5083400;28;20929;-47
2022/06/10 10:45:16;;;;;;;3.77;1.90;;;18.50;65.50;;;;;;5078060;28;20600;-48
2022/06/10 10:47:59;;;;;;;6.53;1.73;;;18.60;65.50;;;;;;5073442;27;20551;-47
2022/06/10 10:50:51;;;;;;;3.23;2.10;;;18.60;65.40;;;;;;5127202;27;20586;-47
2022/06/10 10:53:39;;;;;;;4.00;2.00;;;18.60;65.60;;;;;;5065519;28;20552;-49
2022/06/10 10:56:28;;;;;;;7.53;2.10;;;18.60;65.70;;;;;;5085485;27;20583;-51
2022/06/10 10:59:24;;;;;;;8.20;2.20;;;18.60;66.10;;;;;;5070215;27;21134;-48
2022/06/10 11:02:33;;;;;;;4.17;2.00;;;18.60;65.80;;;;;;5085715;27;20532;-48
2022/06/10 11:05:23;;;;;;;2.17;1.80;;;18.60;65.40;;;;;;5105722;27;20507;-52
2022/06/10 11:08:24;;;;;;;4.30;1.87;;;18.60;65.90;;;;;;5071884;28;20538;-47
2022/06/10 11:11:12;;;;;;;3.13;1.80;;;18.60;65.50;;;;;;5084019;28;20882;-47
2022/06/10 11:13:55;;;;;;;1.67;1.57;;;18.60;65.80;;;;;;5064895;27;20602;-50
2022/06/10 11:16:43;;;;;;;3.10;2.13;;;18.50;65.70;;;;;;5124829;27;20582;-51
2022/06/10 11:19:38;;;;;;;4.27;2.23;;;18.50;65.70;;;;;;5075764;27;20544;-50
2022/06/10 11:22:25;;;;;;;4.73;2.57;;;18.50;65.80;;;;;;5122068;27;20575;-53
2022/06/10 11:25:28;;;;;;;3.30;1.70;;;18.50;65.80;;;;;;5139856;27;20925;-48
2022/06/10 11:28:20;;;;;;;6.30;2.43;;;18.50;65.70;;;;;;5101519;27;20545;-47
2022/06/10 11:31:00;;;;;;;3.20;1.90;;;18.50;65.80;;;;;;5080695;28;20595;-46
2022/06/10 11:33:47;;;;;;;4.20;1.70;;;18.50;65.80;;;;;;5069766;27;20552;-47
2022/06/10 11:36:37;;;;;;;7.40;2.90;;;18.50;66.00;;;;;;5124376;27;20591;-50
2022/06/10 11:39:19;;;;;;;3.47;2.30;;;18.60;66.50;;;;;;5075989;27;20533;-48
2022/06/10 11:42:08;;;;;;;3.70;2.10;;;18.60;66.20;;;;;;5083158;28;20529;-47
2022/06/10 11:44:53;;;;;;;3.33;1.90;;;18.60;66.00;;;;;;5074322;28;20579;-47
2022/06/10 11:47:41;;;;;;;4.63;2.20;;;18.60;65.70;;;;;;5060353;28;20579;-52
2022/06/10 11:50:28;;;;;;;3.73;1.93;;;18.60;66.10;;;;;;5086512;27;20927;-50
2022/06/10 11:53:16;;;;;;;3.63;1.97;;;18.60;66.00;;;;;;5098756;27;20605;-49
2022/06/10 12:01:54;;;;;;;7.10;1.70;;;18.60;66.00;;;;;;5086161;28;20524;-48
2022/06/10 12:04:40;;;;;;;1.77;1.67;;;18.60;65.90;;;;;;5085775;27;20683;-47
2022/06/10 12:07:26;;;;;;;3.37;1.87;;;18.60;66.00;;;;;;5120233;27;20848;-47
2022/06/10 12:10:13;;;;;;;2.50;1.80;;;18.50;65.80;;;;;;5128059;27;20567;-51
2022/06/10 12:12:57;;;;;;;2.40;2.00;;;18.60;65.90;;;;;;5123333;27;20533;-50
2022/06/10 12:15:44;;;;;;;2.53;1.57;;;18.60;65.80;;;;;;5085645;28;20528;-48
2022/06/10 12:18:30;;;;;;;3.33;1.57;;;18.50;65.70;;;;;;5058047;28;20532;-47
2022/06/10 12:21:18;;;;;;;1.83;1.40;;;18.50;65.70;;;;;;5087048;28;20582;-48
2022/06/10 12:23:59;;;;;;;2.22;1.83;;;18.60;65.80;;;;;;5082437;27;1220556;-47
2022/06/10 12:26:47;;;;;;;2.33;1.50;;;18.60;65.80;;;;;;5113065;27;20871;-49
2022/06/10 12:29:39;;;;;;;1.90;1.80;;;18.60;65.80;;;;;;5065872;27;20538;-48
2022/06/10 12:32:28;;;;;;;3.57;1.80;;;18.60;65.90;;;;;;5085971;28;20521;-50
2022/06/10 12:35:18;;;;;;;1.70;1.53;;;18.60;65.80;;;;;;5148107;27;20875;-51
2022/06/10 12:38:05;;;;;;;1.97;1.40;;;18.60;65.90;;;;;;5068549;27;20928;-47
2022/06/10 12:40:51;;;;;;;2.17;1.50;;;18.60;65.80;;;;;;5095229;27;20536;-50
2022/06/10 12:43:34;;;;;;;2.17;1.80;;;18.60;65.70;;;;;;5132994;27;20445;-48
2022/06/10 12:46:41;;;;;;;1.70;1.17;;;18.60;66.00;;;;;;5086167;28;20934;-47
2022/06/10 12:49:30;;;;;;;2.20;1.80;;;18.60;65.80;;;;;;5066937;27;21128;-48
2022/06/10 12:52:30;;;;;;;2.40;1.73;;;18.60;65.70;;;;;;5071756;28;20572;-49
2022/06/10 12:55:31;;;;;;;1.60;1.20;;;18.60;65.70;;;;;;5131690;27;20515;-48
2022/06/10 12:58:47;;;;;;;1.90;1.27;;;18.60;65.80;;;;;;5103876;27;20534;-47
2022/06/10 13:01:43;;;;;;;1.30;1.20;;;18.60;65.80;;;;;;5133347;27;20916;-48
2022/06/10 13:04:59;;;;;;;3.47;1.67;;;18.60;65.80;;;;;;5049429;27;20562;-47
2022/06/10 13:07:40;;;;;;;2.20;1.23;;;18.60;66.30;;;;;;5078225;27;20542;-51
2022/06/10 13:10:46;;;;;;;3.80;1.70;;;18.60;66.00;;;;;;5121241;27;21200;-46
2022/06/10 13:13:27;;;;;;;1.40;1.30;;;18.60;65.90;;;;;;5090115;27;20711;-47
2022/06/10 13:19:30;;;;;;;3.13;1.70;;;18.60;65.90;;;;;;5087057;27;1249083;-49
2022/06/10 13:22:40;;;;;;;1.60;1.50;;;18.60;66.00;;;;;;5115678;27;20606;-49
2022/06/10 13:25:26;;;;;;;2.00;1.50;;;18.60;65.80;;;;;;5084582;28;20531;-48
2022/06/10 13:28:17;;;;;;;3.47;1.67;;;18.60;65.80;;;;;;5071729;27;20589;-49
2022/06/10 13:31:07;;;;;;;1.73;1.37;;;18.60;65.80;;;;;;5089314;27;20531;-51
2022/06/10 13:34:01;;;;;;;1.90;1.70;;;18.60;65.80;;;;;;5052764;27;20546;-49
2022/06/10 13:36:49;;;;;;;2.60;1.40;;;18.60;65.80;;;;;;5114563;27;20529;-48
2022/06/10 13:39:33;;;;;;;1.57;1.30;;;18.60;65.80;;;;;;5067368;27;20558;-47
2022/06/10 13:42:21;;;;;;;2.13;1.93;;;18.60;65.80;;;;;;5131250;27;1244605;-52
2022/06/10 13:45:15;;;;;;;1.47;1.37;;;18.60;65.80;;;;;;5074955;28;20551;-48
2022/06/10 13:47:59;;;;;;;1.20;1.10;;;18.60;65.70;;;;;;5075891;28;20628;-47
2022/06/10 13:53:38;;;;;;;1.30;1.07;;;18.70;65.80;;;;;;5064089;28;20604;-48
2022/06/10 13:56:25;;;;;;;1.90;1.20;;;18.70;65.80;;;;;;5079931;27;20611;-47
2022/06/10 13:59:08;;;;;;;4.10;1.50;;;18.60;65.70;;;;;;5068179;27;21129;-48
2022/06/10 14:01:51;;;;;;;2.47;1.50;;;18.70;67.10;;;;;;5133925;27;20868;-52
2022/06/10 14:04:36;;;;;;;1.27;1.10;;;18.60;65.70;;;;;;5080105;23;20644;-47
2022/06/10 14:07:24;;;;;;;2.70;1.17;;;18.70;65.80;;;;;;5087395;28;20527;-49
2022/06/10 14:10:17;;;;;;;1.90;1.43;;;18.60;65.70;;;;;;5074162;27;20529;-48
2022/06/10 14:13:00;;;;;;;1.53;1.13;;;18.70;65.80;;;;;;5111758;27;20542;-49
2022/06/10 14:15:50;;;;;;;3.33;1.30;;;18.70;66.00;;;;;;5084413;28;20879;-48
2022/06/10 14:18:32;;;;;;;1.47;1.37;;;18.70;65.90;;;;;;5080287;27;20549;-49
2022/06/10 14:21:13;;;;;;;1.60;1.20;;;18.70;65.90;;;;;;5084225;27;20577;-49
2022/06/10 14:24:20;;;;;;;1.53;1.43;;;18.70;66.00;;;;;;5053902;27;20554;-48
2022/06/10 14:27:09;;;;;;;1.53;1.33;;;18.70;67.20;;;;;;5068658;27;20950;-48
2022/06/10 14:29:58;;;;;;;2.60;1.30;;;18.70;66.30;;;;;;5061182;27;20620;-48
2022/06/10 14:32:40;;;;;;;1.77;1.30;;;18.70;66.30;;;;;;5109478;27;20586;-48
2022/06/10 14:35:35;;;;;;;4.43;1.37;;;18.70;66.30;;;;;;5070568;28;21114;-47
2022/06/10 14:38:24;;;;;;;2.90;1.67;;;18.70;66.30;;;;;;5080709;27;20606;-48
2022/06/10 14:41:21;;;;;;;2.60;1.87;;;18.70;66.20;;;;;;5082734;28;20528;-48
2022/06/10 14:44:03;;;;;;;1.80;1.60;;;18.70;66.00;;;;;;5087881;27;20613;-48
2022/06/10 14:47:05;;;;;;;2.80;1.50;;;18.70;66.10;;;;;;5087046;27;20519;-47
2022/06/10 14:49:54;;;;;;;1.70;1.17;;;18.70;66.10;;;;;;5086708;28;20923;-47
2022/06/10 14:52:40;;;;;;;2.87;1.53;;;18.80;66.30;;;;;;5081044;27;20590;-48
2022/06/10 14:55:25;;;;;;;1.80;1.30;;;18.70;66.10;;;;;;5087235;27;20573;-48
2022/06/10 14:58:12;;;;;;;1.50;1.30;;;18.80;66.10;;;;;;4996196;28;21114;-48
2022/06/10 15:00:53;;;;;;;1.33;1.20;;;18.80;66.10;;;;;;5124709;27;20652;-48
2022/06/10 15:03:34;;;;;;;1.40;1.30;;;18.70;66.00;;;;;;5072243;28;20553;-48
2022/06/10 15:06:26;;;;;;;2.30;1.23;;;18.80;66.10;;;;;;5086796;27;20524;-48
2022/06/10 15:09:14;;;;;;;1.50;1.40;;;18.80;66.10;;;;;;5073929;27;20759;-48
2022/06/10 15:11:56;;;;;;;1.73;1.20;;;18.80;66.00;;;;;;5086616;28;20937;-47
2022/06/10 15:14:37;;;;;;;1.60;1.13;;;18.80;66.00;;;;;;4997225;27;20557;-47
2022/06/10 15:17:18;;;;;;;1.70;1.27;;;18.80;65.90;;;;;;5087344;27;20661;-48
2022/06/10 15:19:59;;;;;;;1.40;1.30;;;18.80;66.00;;;;;;5086414;27;20523;-48
2022/06/10 15:22:44;;;;;;;1.67;1.23;;;18.80;66.00;;;;;;5079973;28;20550;-49
2022/06/10 15:25:28;;;;;;;2.90;2.03;;;18.80;66.00;;;;;;5127734;27;20517;-48
2022/06/10 15:28:13;;;;;;;2.20;1.43;;;18.80;66.00;;;;;;5091028;27;20733;-48
2022/06/10 15:30:57;;;;;;;1.43;1.17;;;18.80;66.00;;;;;;5084912;27;21130;-48
2022/06/10 15:33:37;;;;;;;1.23;1.10;;;18.90;66.00;;;;;;5064428;27;20899;-46
2022/06/10 15:42:36;;;;;;;1.93;1.33;;;18.90;66.10;;;;;;5088643;27;20990;-47
2022/06/10 15:45:18;;;;;;;1.30;1.20;;;18.80;66.00;;;;;;5150425;27;20663;-48
2022/06/10 15:47:58;;;;;;;1.67;1.20;;;18.80;66.00;;;;;;5077976;28;20586;-48
2022/06/10 15:50:44;;;;;;;2.27;1.50;;;18.80;66.00;;;;;;5087215;28;20532;-48
2022/06/10 15:53:27;;;;;;;2.83;1.20;;;18.90;66.10;;;;;;5066527;28;20949;-48
2022/06/10 15:59:13;;;;;;;2.10;1.10;;;18.90;66.10;;;;;;5152564;27;20592;-48
2022/06/10 16:01:54;;;;;;;1.83;1.23;;;18.80;66.00;;;;;;5086818;27;20575;-48
2022/06/10 16:04:34;;;;;;;1.20;1.10;;;18.80;65.90;;;;;;5054011;27;20623;-46
2022/06/10 16:07:16;;;;;;;1.00;0.90;;;18.90;66.00;;;;;;5084513;27;20524;-47
2022/06/10 16:09:56;;;;;;;1.50;1.20;;;18.90;66.00;;;;;;5110543;27;20560;-48
2022/06/10 16:15:38;;;;;;;1.33;1.17;;;18.90;66.10;;;;;;5124165;27;20923;-48
2022/06/10 16:18:21;;;;;;;5.30;1.60;;;18.90;66.00;;;;;;5072305;28;20612;-48
2022/06/10 16:21:03;;;;;;;1.83;1.30;;;18.90;66.50;;;;;;5083527;27;20991;-48
2022/06/10 16:23:47;;;;;;;5.77;1.80;;;18.90;66.50;;;;;;5048065;28;21134;-47
2022/06/10 16:26:31;;;;;;;3.23;1.30;;;18.90;66.40;;;;;;5086769;28;20558;-47
2022/06/10 16:29:18;;;;;;;3.37;1.50;;;18.90;66.30;;;;;;5079851;27;20540;-47
2022/06/10 16:32:03;;;;;;;1.40;1.30;;;18.90;66.40;;;;;;5085897;28;20515;-47
2022/06/10 16:34:45;;;;;;;2.93;1.20;;;19.00;66.30;;;;;;5044179;27;20487;-48
2022/06/10 16:37:26;;;;;;;2.80;1.37;;;19.00;66.60;;;;;;5142276;27;20563;-48
2022/06/10 16:40:08;;;;;;;4.37;1.37;;;19.00;66.60;;;;;;5104910;27;20540;-48
2022/06/10 16:42:51;;;;;;;2.03;1.30;;;19.00;66.50;;;;;;5083481;27;20546;-48
2022/06/10 16:45:33;;;;;;;1.33;1.20;;;19.00;66.30;;;;;;5076968;27;20580;-49
2022/06/10 16:48:20;;;;;;;2.87;1.50;;;19.00;66.30;;;;;;5059117;28;20549;-49
2022/06/10 16:51:01;;;;;;;2.47;1.40;;;19.00;67.50;;;;;;5084310;27;20596;-48